sensor_id;sensor_type;location;lat;lon;timestamp;P1;durP1;ratioP1;P2;durP2;ratioP2
65162;SDS011;51751;55.714;37.436;2023-08-20T00:01:45;22.25;;;10.95;;
65162;SDS011;51751;55.714;37.436;2023-08-20T00:04:11;20.52;;;10.65;;
65162;SDS011;51751;55.714;37.436;2023-08-20T00:06:38;20.52;;;10.85;;
65162;SDS011;51751;55.714;37.436;2023-08-20T00:09:08;27.58;;;11.50;;
65162;SDS011;51751;55.714;37.436;2023-08-20T00:11:34;18.52;;;10.13;;
65162;SDS011;51751;55.714;37.436;2023-08-20T00:16:46;19.92;;;10.48;;
65162;SDS011;51751;55.714;37.436;2023-08-20T00:19:14;19.67;;;10.57;;
65162;SDS011;51751;55.714;37.436;2023-08-20T00:21:43;19.80;;;11.15;;
65162;SDS011;51751;55.714;37.436;2023-08-20T00:24:10;18.33;;;10.52;;
65162;SDS011;51751;55.714;37.436;2023-08-20T00:26:37;18.50;;;10.20;;
65162;SDS011;51751;55.714;37.436;2023-08-20T00:29:06;18.48;;;10.93;;
65162;SDS011;51751;55.714;37.436;2023-08-20T00:31:34;22.77;;;10.55;;
65162;SDS011;51751;55.714;37.436;2023-08-20T00:34:00;18.15;;;10.43;;
65162;SDS011;51751;55.714;37.436;2023-08-20T00:36:26;15.65;;;9.63;;
65162;SDS011;51751;55.714;37.436;2023-08-20T00:38:53;21.60;;;10.57;;
65162;SDS011;51751;55.714;37.436;2023-08-20T00:41:30;21.40;;;10.35;;
65162;SDS011;51751;55.714;37.436;2023-08-20T00:44:00;27.52;;;11.38;;
65162;SDS011;51751;55.714;37.436;2023-08-20T00:46:26;24.05;;;10.68;;
65162;SDS011;51751;55.714;37.436;2023-08-20T00:48:55;20.60;;;10.60;;
65162;SDS011;51751;55.714;37.436;2023-08-20T00:51:22;20.65;;;10.73;;
65162;SDS011;51751;55.714;37.436;2023-08-20T00:53:48;20.10;;;10.80;;
65162;SDS011;51751;55.714;37.436;2023-08-20T00:56:15;18.70;;;10.38;;
65162;SDS011;51751;55.714;37.436;2023-08-20T00:58:41;23.00;;;10.40;;
65162;SDS011;51751;55.714;37.436;2023-08-20T01:03:50;25.42;;;10.52;;
65162;SDS011;51751;55.714;37.436;2023-08-20T01:11:59;21.25;;;9.93;;
65162;SDS011;51751;55.714;37.436;2023-08-20T01:14:25;21.27;;;10.05;;
65162;SDS011;51751;55.714;37.436;2023-08-20T01:16:51;16.83;;;9.70;;
65162;SDS011;51751;55.714;37.436;2023-08-20T01:19:18;18.67;;;10.75;;
65162;SDS011;51751;55.714;37.436;2023-08-20T01:30:41;16.52;;;11.02;;
65162;SDS011;51751;55.714;37.436;2023-08-20T01:33:08;28.25;;;11.05;;
65162;SDS011;51751;55.714;37.436;2023-08-20T01:35:35;22.00;;;11.30;;
65162;SDS011;51751;55.714;37.436;2023-08-20T01:38:11;19.15;;;10.30;;
65162;SDS011;51751;55.714;37.436;2023-08-20T01:40:36;18.58;;;10.82;;
65162;SDS011;51751;55.714;37.436;2023-08-20T01:43:02;20.98;;;10.85;;
65162;SDS011;51751;55.714;37.436;2023-08-20T01:45:28;17.73;;;11.20;;
65162;SDS011;51751;55.714;37.436;2023-08-20T01:47:54;22.77;;;11.57;;
65162;SDS011;51751;55.714;37.436;2023-08-20T01:50:20;19.00;;;10.80;;
65162;SDS011;51751;55.714;37.436;2023-08-20T01:52:46;24.98;;;11.00;;
65162;SDS011;51751;55.714;37.436;2023-08-20T01:55:12;22.05;;;10.55;;
65162;SDS011;51751;55.714;37.436;2023-08-20T01:57:39;24.08;;;11.05;;
65162;SDS011;51751;55.714;37.436;2023-08-20T02:00:05;23.83;;;11.32;;
65162;SDS011;51751;55.714;37.436;2023-08-20T02:02:39;16.75;;;11.25;;
65162;SDS011;51751;55.714;37.436;2023-08-20T02:05:05;21.63;;;11.18;;
65162;SDS011;51751;55.714;37.436;2023-08-20T02:07:31;22.77;;;11.00;;
65162;SDS011;51751;55.714;37.436;2023-08-20T02:09:59;21.42;;;11.00;;
65162;SDS011;51751;55.714;37.436;2023-08-20T02:12:25;17.23;;;10.82;;
65162;SDS011;51751;55.714;37.436;2023-08-20T02:14:53;20.00;;;11.18;;
65162;SDS011;51751;55.714;37.436;2023-08-20T02:17:22;16.40;;;11.38;;
65162;SDS011;51751;55.714;37.436;2023-08-20T02:19:49;19.58;;;10.63;;
65162;SDS011;51751;55.714;37.436;2023-08-20T02:22:16;19.65;;;11.10;;
65162;SDS011;51751;55.714;37.436;2023-08-20T02:24:43;17.45;;;10.60;;
65162;SDS011;51751;55.714;37.436;2023-08-20T02:27:09;15.57;;;10.38;;
65162;SDS011;51751;55.714;37.436;2023-08-20T02:29:35;23.02;;;11.52;;
65162;SDS011;51751;55.714;37.436;2023-08-20T02:32:01;18.98;;;11.43;;
65162;SDS011;51751;55.714;37.436;2023-08-20T02:34:29;21.00;;;11.05;;
65162;SDS011;51751;55.714;37.436;2023-08-20T02:36:55;18.58;;;11.52;;
65162;SDS011;51751;55.714;37.436;2023-08-20T02:39:22;20.88;;;11.52;;
65162;SDS011;51751;55.714;37.436;2023-08-20T02:41:50;17.38;;;11.60;;
65162;SDS011;51751;55.714;37.436;2023-08-20T02:44:17;16.38;;;12.05;;
65162;SDS011;51751;55.714;37.436;2023-08-20T02:46:43;17.83;;;12.40;;
65162;SDS011;51751;55.714;37.436;2023-08-20T02:49:11;18.17;;;12.13;;
65162;SDS011;51751;55.714;37.436;2023-08-20T02:51:37;19.88;;;12.02;;
65162;SDS011;51751;55.714;37.436;2023-08-20T02:54:03;22.63;;;12.50;;
65162;SDS011;51751;55.714;37.436;2023-08-20T02:56:29;20.63;;;12.60;;
65162;SDS011;51751;55.714;37.436;2023-08-20T02:58:55;26.45;;;12.70;;
65162;SDS011;51751;55.714;37.436;2023-08-20T03:01:22;59.63;;;14.80;;
65162;SDS011;51751;55.714;37.436;2023-08-20T03:03:52;28.67;;;12.88;;
65162;SDS011;51751;55.714;37.436;2023-08-20T03:06:18;27.27;;;13.15;;
65162;SDS011;51751;55.714;37.436;2023-08-20T03:08:45;23.38;;;11.43;;
65162;SDS011;51751;55.714;37.436;2023-08-20T03:11:11;21.35;;;12.10;;
65162;SDS011;51751;55.714;37.436;2023-08-20T03:13:37;21.23;;;12.80;;
65162;SDS011;51751;55.714;37.436;2023-08-20T03:16:03;21.88;;;13.13;;
65162;SDS011;51751;55.714;37.436;2023-08-20T03:18:29;15.45;;;12.73;;
65162;SDS011;51751;55.714;37.436;2023-08-20T03:20:55;17.55;;;12.55;;
65162;SDS011;51751;55.714;37.436;2023-08-20T03:23:22;20.95;;;13.32;;
65162;SDS011;51751;55.714;37.436;2023-08-20T03:25:48;23.15;;;13.32;;
65162;SDS011;51751;55.714;37.436;2023-08-20T03:28:14;17.02;;;12.95;;
65162;SDS011;51751;55.714;37.436;2023-08-20T03:30:41;20.98;;;13.68;;
65162;SDS011;51751;55.714;37.436;2023-08-20T03:33:07;28.15;;;14.57;;
65162;SDS011;51751;55.714;37.436;2023-08-20T03:35:34;31.65;;;15.85;;
65162;SDS011;51751;55.714;37.436;2023-08-20T03:38:01;22.38;;;13.90;;
65162;SDS011;51751;55.714;37.436;2023-08-20T03:40:27;22.38;;;15.18;;
65162;SDS011;51751;55.714;37.436;2023-08-20T03:42:53;21.52;;;15.27;;
65162;SDS011;51751;55.714;37.436;2023-08-20T03:45:19;31.17;;;15.77;;
65162;SDS011;51751;55.714;37.436;2023-08-20T03:47:45;22.38;;;14.43;;
65162;SDS011;51751;55.714;37.436;2023-08-20T03:50:12;23.92;;;14.85;;
65162;SDS011;51751;55.714;37.436;2023-08-20T03:52:38;23.25;;;15.15;;
65162;SDS011;51751;55.714;37.436;2023-08-20T03:55:05;19.92;;;14.23;;
65162;SDS011;51751;55.714;37.436;2023-08-20T03:57:32;19.60;;;13.40;;
65162;SDS011;51751;55.714;37.436;2023-08-20T03:59:58;21.52;;;14.10;;
65162;SDS011;51751;55.714;37.436;2023-08-20T04:02:24;18.38;;;13.63;;
65162;SDS011;51751;55.714;37.436;2023-08-20T04:04:50;18.33;;;11.70;;
65162;SDS011;51751;55.714;37.436;2023-08-20T04:07:17;19.70;;;13.00;;
65162;SDS011;51751;55.714;37.436;2023-08-20T04:09:43;29.35;;;14.07;;
65162;SDS011;51751;55.714;37.436;2023-08-20T04:12:11;18.58;;;12.82;;
65162;SDS011;51751;55.714;37.436;2023-08-20T04:14:37;17.30;;;12.73;;
65162;SDS011;51751;55.714;37.436;2023-08-20T04:17:03;14.52;;;11.43;;
65162;SDS011;51751;55.714;37.436;2023-08-20T04:19:31;17.02;;;11.20;;
65162;SDS011;51751;55.714;37.436;2023-08-20T04:21:57;17.73;;;12.25;;
65162;SDS011;51751;55.714;37.436;2023-08-20T04:24:23;19.48;;;13.27;;
65162;SDS011;51751;55.714;37.436;2023-08-20T04:26:49;20.05;;;12.27;;
65162;SDS011;51751;55.714;37.436;2023-08-20T04:29:22;18.75;;;14.38;;
65162;SDS011;51751;55.714;37.436;2023-08-20T04:31:48;19.23;;;13.07;;
65162;SDS011;51751;55.714;37.436;2023-08-20T04:34:14;19.92;;;13.35;;
65162;SDS011;51751;55.714;37.436;2023-08-20T04:36:47;20.92;;;13.38;;
65162;SDS011;51751;55.714;37.436;2023-08-20T04:39:13;19.77;;;12.48;;
65162;SDS011;51751;55.714;37.436;2023-08-20T04:41:44;24.13;;;13.85;;
65162;SDS011;51751;55.714;37.436;2023-08-20T04:44:14;15.88;;;13.00;;
65162;SDS011;51751;55.714;37.436;2023-08-20T04:46:42;16.85;;;13.07;;
65162;SDS011;51751;55.714;37.436;2023-08-20T04:49:08;19.02;;;13.15;;
65162;SDS011;51751;55.714;37.436;2023-08-20T04:51:36;19.13;;;13.02;;
65162;SDS011;51751;55.714;37.436;2023-08-20T04:54:02;19.02;;;13.68;;
65162;SDS011;51751;55.714;37.436;2023-08-20T04:56:28;18.92;;;13.75;;
65162;SDS011;51751;55.714;37.436;2023-08-20T04:58:55;20.88;;;12.63;;
65162;SDS011;51751;55.714;37.436;2023-08-20T05:01:44;20.00;;;12.13;;
65162;SDS011;51751;55.714;37.436;2023-08-20T05:04:10;19.65;;;12.07;;
65162;SDS011;51751;55.714;37.436;2023-08-20T05:06:37;18.17;;;11.23;;
65162;SDS011;51751;55.714;37.436;2023-08-20T05:09:03;19.77;;;11.82;;
65162;SDS011;51751;55.714;37.436;2023-08-20T05:11:29;22.58;;;11.23;;
65162;SDS011;51751;55.714;37.436;2023-08-20T05:13:57;16.00;;;10.93;;
65162;SDS011;51751;55.714;37.436;2023-08-20T05:16:23;15.20;;;10.82;;
65162;SDS011;51751;55.714;37.436;2023-08-20T05:18:50;13.25;;;10.75;;
65162;SDS011;51751;55.714;37.436;2023-08-20T05:21:16;18.83;;;11.63;;
65162;SDS011;51751;55.714;37.436;2023-08-20T05:23:42;15.55;;;10.73;;
65162;SDS011;51751;55.714;37.436;2023-08-20T05:26:08;19.67;;;11.38;;
65162;SDS011;51751;55.714;37.436;2023-08-20T05:28:34;19.70;;;11.48;;
65162;SDS011;51751;55.714;37.436;2023-08-20T05:31:00;16.85;;;10.93;;
65162;SDS011;51751;55.714;37.436;2023-08-20T05:33:26;18.88;;;10.93;;
65162;SDS011;51751;55.714;37.436;2023-08-20T05:35:54;19.80;;;11.25;;
65162;SDS011;51751;55.714;37.436;2023-08-20T05:38:21;11.90;;;10.02;;
65162;SDS011;51751;55.714;37.436;2023-08-20T05:40:48;23.33;;;10.57;;
65162;SDS011;51751;55.714;37.436;2023-08-20T05:43:14;17.67;;;10.93;;
65162;SDS011;51751;55.714;37.436;2023-08-20T05:45:41;12.60;;;10.38;;
65162;SDS011;51751;55.714;37.436;2023-08-20T05:48:09;12.73;;;10.30;;
65162;SDS011;51751;55.714;37.436;2023-08-20T05:50:35;12.48;;;9.80;;
65162;SDS011;51751;55.714;37.436;2023-08-20T05:53:01;14.60;;;11.10;;
65162;SDS011;51751;55.714;37.436;2023-08-20T05:55:29;13.93;;;10.48;;
65162;SDS011;51751;55.714;37.436;2023-08-20T05:57:55;15.50;;;9.75;;
65162;SDS011;51751;55.714;37.436;2023-08-20T06:00:21;14.18;;;9.43;;
65162;SDS011;51751;55.714;37.436;2023-08-20T06:02:48;13.10;;;9.77;;
65162;SDS011;51751;55.714;37.436;2023-08-20T06:05:13;12.40;;;9.93;;
65162;SDS011;51751;55.714;37.436;2023-08-20T06:07:40;12.70;;;9.50;;
65162;SDS011;51751;55.714;37.436;2023-08-20T06:10:06;17.48;;;9.77;;
65162;SDS011;51751;55.714;37.436;2023-08-20T06:12:33;12.32;;;9.73;;
65162;SDS011;51751;55.714;37.436;2023-08-20T06:15:00;12.18;;;9.23;;
65162;SDS011;51751;55.714;37.436;2023-08-20T06:17:30;17.50;;;8.88;;
65162;SDS011;51751;55.714;37.436;2023-08-20T06:19:56;12.35;;;8.85;;
65162;SDS011;51751;55.714;37.436;2023-08-20T06:22:22;12.20;;;9.00;;
65162;SDS011;51751;55.714;37.436;2023-08-20T06:24:48;12.32;;;8.55;;
65162;SDS011;51751;55.714;37.436;2023-08-20T06:27:14;19.73;;;8.55;;
65162;SDS011;51751;55.714;37.436;2023-08-20T06:29:40;33.03;;;10.13;;
65162;SDS011;51751;55.714;37.436;2023-08-20T06:32:06;17.50;;;8.05;;
65162;SDS011;51751;55.714;37.436;2023-08-20T06:34:33;17.38;;;9.05;;
65162;SDS011;51751;55.714;37.436;2023-08-20T06:36:59;14.40;;;8.25;;
65162;SDS011;51751;55.714;37.436;2023-08-20T06:39:25;20.77;;;8.40;;
65162;SDS011;51751;55.714;37.436;2023-08-20T06:41:51;15.35;;;8.93;;
65162;SDS011;51751;55.714;37.436;2023-08-20T06:44:20;11.25;;;7.78;;
65162;SDS011;51751;55.714;37.436;2023-08-20T06:46:46;19.58;;;8.45;;
65162;SDS011;51751;55.714;37.436;2023-08-20T06:49:12;11.20;;;7.28;;
65162;SDS011;51751;55.714;37.436;2023-08-20T06:51:38;19.65;;;8.52;;
65162;SDS011;51751;55.714;37.436;2023-08-20T06:54:04;10.70;;;8.13;;
65162;SDS011;51751;55.714;37.436;2023-08-20T06:56:33;14.95;;;8.80;;
65162;SDS011;51751;55.714;37.436;2023-08-20T06:59:00;13.73;;;7.55;;
65162;SDS011;51751;55.714;37.436;2023-08-20T07:01:26;18.15;;;7.90;;
65162;SDS011;51751;55.714;37.436;2023-08-20T07:03:53;18.52;;;8.48;;
65162;SDS011;51751;55.714;37.436;2023-08-20T07:06:19;19.42;;;7.65;;
65162;SDS011;51751;55.714;37.436;2023-08-20T07:08:45;15.90;;;7.78;;
65162;SDS011;51751;55.714;37.436;2023-08-20T07:11:11;10.25;;;7.20;;
65162;SDS011;51751;55.714;37.436;2023-08-20T07:13:37;12.07;;;7.30;;
65162;SDS011;51751;55.714;37.436;2023-08-20T07:16:04;13.65;;;7.68;;
65162;SDS011;51751;55.714;37.436;2023-08-20T07:18:30;12.90;;;7.40;;
65162;SDS011;51751;55.714;37.436;2023-08-20T07:20:56;17.90;;;7.82;;
65162;SDS011;51751;55.714;37.436;2023-08-20T07:23:22;14.55;;;6.95;;
65162;SDS011;51751;55.714;37.436;2023-08-20T07:25:48;11.13;;;6.30;;
65162;SDS011;51751;55.714;37.436;2023-08-20T07:28:18;10.90;;;6.40;;
65162;SDS011;51751;55.714;37.436;2023-08-20T07:30:52;11.77;;;6.80;;
65162;SDS011;51751;55.714;37.436;2023-08-20T07:33:18;17.30;;;6.60;;
65162;SDS011;51751;55.714;37.436;2023-08-20T07:35:44;13.77;;;6.65;;
65162;SDS011;51751;55.714;37.436;2023-08-20T07:38:10;11.68;;;5.95;;
65162;SDS011;51751;55.714;37.436;2023-08-20T07:40:36;11.30;;;5.70;;
65162;SDS011;51751;55.714;37.436;2023-08-20T07:43:02;12.25;;;5.65;;
65162;SDS011;51751;55.714;37.436;2023-08-20T07:45:28;9.25;;;5.15;;
65162;SDS011;51751;55.714;37.436;2023-08-20T07:47:54;10.30;;;4.70;;
65162;SDS011;51751;55.714;37.436;2023-08-20T07:50:20;10.38;;;5.05;;
65162;SDS011;51751;55.714;37.436;2023-08-20T07:52:46;11.52;;;5.28;;
65162;SDS011;51751;55.714;37.436;2023-08-20T07:55:12;8.07;;;4.60;;
65162;SDS011;51751;55.714;37.436;2023-08-20T07:57:38;8.85;;;4.63;;
65162;SDS011;51751;55.714;37.436;2023-08-20T08:00:04;9.95;;;4.80;;
65162;SDS011;51751;55.714;37.436;2023-08-20T08:02:37;14.07;;;5.40;;
65162;SDS011;51751;55.714;37.436;2023-08-20T08:05:03;8.38;;;4.40;;
65162;SDS011;51751;55.714;37.436;2023-08-20T08:07:30;5.90;;;4.32;;
65162;SDS011;51751;55.714;37.436;2023-08-20T08:09:56;5.82;;;4.47;;
65162;SDS011;51751;55.714;37.436;2023-08-20T08:12:21;6.20;;;4.50;;
65162;SDS011;51751;55.714;37.436;2023-08-20T08:14:47;7.07;;;4.63;;
65162;SDS011;51751;55.714;37.436;2023-08-20T08:17:13;7.10;;;4.00;;
65162;SDS011;51751;55.714;37.436;2023-08-20T08:19:39;4.90;;;4.20;;
65162;SDS011;51751;55.714;37.436;2023-08-20T08:22:05;5.68;;;3.95;;
65162;SDS011;51751;55.714;37.436;2023-08-20T08:24:31;4.95;;;4.13;;
65162;SDS011;51751;55.714;37.436;2023-08-20T08:26:57;7.28;;;4.18;;
65162;SDS011;51751;55.714;37.436;2023-08-20T08:29:23;6.28;;;3.97;;
65162;SDS011;51751;55.714;37.436;2023-08-20T08:31:49;4.38;;;3.88;;
65162;SDS011;51751;55.714;37.436;2023-08-20T08:34:15;4.97;;;3.70;;
65162;SDS011;51751;55.714;37.436;2023-08-20T08:36:41;7.93;;;3.80;;
65162;SDS011;51751;55.714;37.436;2023-08-20T08:39:06;8.73;;;4.00;;
65162;SDS011;51751;55.714;37.436;2023-08-20T08:41:33;4.80;;;3.90;;
65162;SDS011;51751;55.714;37.436;2023-08-20T08:44:01;5.47;;;3.90;;
65162;SDS011;51751;55.714;37.436;2023-08-20T08:46:27;6.38;;;3.80;;
65162;SDS011;51751;55.714;37.436;2023-08-20T08:48:53;4.38;;;3.70;;
65162;SDS011;51751;55.714;37.436;2023-08-20T08:51:20;5.22;;;3.40;;
65162;SDS011;51751;55.714;37.436;2023-08-20T08:53:46;6.05;;;3.78;;
65162;SDS011;51751;55.714;37.436;2023-08-20T08:56:12;6.47;;;3.40;;
65162;SDS011;51751;55.714;37.436;2023-08-20T08:58:38;5.40;;;4.00;;
65162;SDS011;51751;55.714;37.436;2023-08-20T09:01:04;10.20;;;3.88;;
65162;SDS011;51751;55.714;37.436;2023-08-20T09:03:29;7.43;;;4.05;;
65162;SDS011;51751;55.714;37.436;2023-08-20T09:05:57;7.32;;;4.20;;
65162;SDS011;51751;55.714;37.436;2023-08-20T09:08:27;8.43;;;3.92;;
65162;SDS011;51751;55.714;37.436;2023-08-20T09:10:55;9.60;;;4.20;;
65162;SDS011;51751;55.714;37.436;2023-08-20T09:13:26;10.50;;;4.25;;
65162;SDS011;51751;55.714;37.436;2023-08-20T09:15:58;5.10;;;3.60;;
65162;SDS011;51751;55.714;37.436;2023-08-20T09:18:24;7.07;;;4.25;;
65162;SDS011;51751;55.714;37.436;2023-08-20T09:20:50;8.23;;;3.95;;
65162;SDS011;51751;55.714;37.436;2023-08-20T09:23:16;5.28;;;3.65;;
65162;SDS011;51751;55.714;37.436;2023-08-20T09:25:42;7.32;;;3.85;;
65162;SDS011;51751;55.714;37.436;2023-08-20T09:28:09;4.78;;;3.50;;
65162;SDS011;51751;55.714;37.436;2023-08-20T09:30:35;5.47;;;3.47;;
65162;SDS011;51751;55.714;37.436;2023-08-20T09:33:04;4.88;;;3.45;;
65162;SDS011;51751;55.714;37.436;2023-08-20T09:35:32;5.70;;;3.60;;
65162;SDS011;51751;55.714;37.436;2023-08-20T09:38:02;6.28;;;3.60;;
65162;SDS011;51751;55.714;37.436;2023-08-20T09:40:29;7.05;;;3.60;;
65162;SDS011;51751;55.714;37.436;2023-08-20T09:42:56;5.95;;;3.50;;
65162;SDS011;51751;55.714;37.436;2023-08-20T09:45:26;6.07;;;3.88;;
65162;SDS011;51751;55.714;37.436;2023-08-20T09:47:58;6.38;;;3.80;;
65162;SDS011;51751;55.714;37.436;2023-08-20T09:50:24;4.05;;;3.53;;
65162;SDS011;51751;55.714;37.436;2023-08-20T09:52:55;4.57;;;3.17;;
65162;SDS011;51751;55.714;37.436;2023-08-20T09:55:27;3.67;;;3.15;;
65162;SDS011;51751;55.714;37.436;2023-08-20T09:57:55;4.85;;;3.50;;
65162;SDS011;51751;55.714;37.436;2023-08-20T10:00:22;3.90;;;3.50;;
65162;SDS011;51751;55.714;37.436;2023-08-20T10:02:48;5.25;;;3.67;;
65162;SDS011;51751;55.714;37.436;2023-08-20T10:05:13;4.38;;;3.70;;
65162;SDS011;51751;55.714;37.436;2023-08-20T10:07:40;4.60;;;3.75;;
65162;SDS011;51751;55.714;37.436;2023-08-20T10:10:08;4.57;;;3.88;;
65162;SDS011;51751;55.714;37.436;2023-08-20T10:12:37;4.93;;;3.80;;
65162;SDS011;51751;55.714;37.436;2023-08-20T10:15:05;5.18;;;3.70;;
65162;SDS011;51751;55.714;37.436;2023-08-20T10:17:33;5.63;;;3.67;;
65162;SDS011;51751;55.714;37.436;2023-08-20T10:20:01;4.95;;;3.70;;
65162;SDS011;51751;55.714;37.436;2023-08-20T10:22:37;4.90;;;3.80;;
65162;SDS011;51751;55.714;37.436;2023-08-20T10:25:07;6.07;;;3.90;;
65162;SDS011;51751;55.714;37.436;2023-08-20T10:27:35;6.47;;;4.10;;
65162;SDS011;51751;55.714;37.436;2023-08-20T10:30:07;7.05;;;3.90;;
65162;SDS011;51751;55.714;37.436;2023-08-20T10:32:50;5.45;;;3.53;;
65162;SDS011;51751;55.714;37.436;2023-08-20T10:35:18;5.47;;;3.83;;
65162;SDS011;51751;55.714;37.436;2023-08-20T10:38:06;5.45;;;3.80;;
65162;SDS011;51751;55.714;37.436;2023-08-20T10:49:04;6.50;;;4.00;;
65162;SDS011;51751;55.714;37.436;2023-08-20T10:51:30;4.55;;;3.63;;
65162;SDS011;51751;55.714;37.436;2023-08-20T10:56:46;6.43;;;4.03;;
65162;SDS011;51751;55.714;37.436;2023-08-20T11:01:47;5.07;;;4.00;;
65162;SDS011;51751;55.714;37.436;2023-08-20T11:04:20;5.35;;;3.88;;
65162;SDS011;51751;55.714;37.436;2023-08-20T11:06:54;5.80;;;4.28;;
65162;SDS011;51751;55.714;37.436;2023-08-20T11:09:21;7.25;;;4.13;;
65162;SDS011;51751;55.714;37.436;2023-08-20T11:11:48;7.47;;;4.60;;
65162;SDS011;51751;55.714;37.436;2023-08-20T11:14:14;8.25;;;4.40;;
65162;SDS011;51751;55.714;37.436;2023-08-20T11:16:41;8.13;;;4.22;;
65162;SDS011;51751;55.714;37.436;2023-08-20T11:19:09;7.80;;;4.30;;
65162;SDS011;51751;55.714;37.436;2023-08-20T11:21:36;5.75;;;4.00;;
65162;SDS011;51751;55.714;37.436;2023-08-20T11:24:03;7.80;;;4.82;;
65162;SDS011;51751;55.714;37.436;2023-08-20T11:26:30;8.70;;;4.40;;
65162;SDS011;51751;55.714;37.436;2023-08-20T11:28:56;9.45;;;4.47;;
65162;SDS011;51751;55.714;37.436;2023-08-20T11:31:22;14.63;;;4.93;;
65162;SDS011;51751;55.714;37.436;2023-08-20T11:33:49;7.65;;;4.50;;
65162;SDS011;51751;55.714;37.436;2023-08-20T11:36:15;11.55;;;4.35;;
65162;SDS011;51751;55.714;37.436;2023-08-20T11:38:49;8.35;;;4.30;;
65162;SDS011;51751;55.714;37.436;2023-08-20T11:41:16;6.68;;;4.40;;
65162;SDS011;51751;55.714;37.436;2023-08-20T11:43:42;8.25;;;4.63;;
65162;SDS011;51751;55.714;37.436;2023-08-20T11:46:12;9.82;;;5.22;;
65162;SDS011;51751;55.714;37.436;2023-08-20T11:51:35;19.40;;;4.75;;
65162;SDS011;51751;55.714;37.436;2023-08-20T11:54:05;22.10;;;4.65;;
65162;SDS011;51751;55.714;37.436;2023-08-20T11:56:33;16.88;;;3.40;;
65162;SDS011;51751;55.714;37.436;2023-08-20T11:59:00;11.45;;;3.47;;
65162;SDS011;51751;55.714;37.436;2023-08-20T12:01:31;24.40;;;4.00;;
65162;SDS011;51751;55.714;37.436;2023-08-20T12:04:04;8.20;;;3.28;;
65162;SDS011;51751;55.714;37.436;2023-08-20T12:06:31;12.20;;;3.63;;
65162;SDS011;51751;55.714;37.436;2023-08-20T12:08:57;8.70;;;3.20;;
65162;SDS011;51751;55.714;37.436;2023-08-20T12:11:27;6.65;;;2.65;;
65162;SDS011;51751;55.714;37.436;2023-08-20T12:13:54;5.43;;;2.70;;
65162;SDS011;51751;55.714;37.436;2023-08-20T12:16:23;6.07;;;2.70;;
65162;SDS011;51751;55.714;37.436;2023-08-20T12:18:50;8.10;;;2.95;;
65162;SDS011;51751;55.714;37.436;2023-08-20T12:21:17;5.57;;;3.00;;
65162;SDS011;51751;55.714;37.436;2023-08-20T12:23:43;6.03;;;2.75;;
65162;SDS011;51751;55.714;37.436;2023-08-20T12:26:09;10.38;;;3.40;;
65162;SDS011;51751;55.714;37.436;2023-08-20T12:28:35;6.10;;;3.00;;
65162;SDS011;51751;55.714;37.436;2023-08-20T12:31:01;10.85;;;3.50;;
65162;SDS011;51751;55.714;37.436;2023-08-20T12:33:28;6.97;;;3.30;;
65162;SDS011;51751;55.714;37.436;2023-08-20T12:35:57;12.80;;;2.90;;
65162;SDS011;51751;55.714;37.436;2023-08-20T12:38:24;8.70;;;2.95;;
65162;SDS011;51751;55.714;37.436;2023-08-20T12:40:50;5.43;;;3.00;;
65162;SDS011;51751;55.714;37.436;2023-08-20T12:43:16;5.85;;;3.40;;
65162;SDS011;51751;55.714;37.436;2023-08-20T12:45:41;6.82;;;3.80;;
65162;SDS011;51751;55.714;37.436;2023-08-20T12:48:07;8.18;;;3.72;;
65162;SDS011;51751;55.714;37.436;2023-08-20T12:50:34;6.40;;;3.42;;
65162;SDS011;51751;55.714;37.436;2023-08-20T12:53:00;4.30;;;3.67;;
65162;SDS011;51751;55.714;37.436;2023-08-20T12:55:27;4.47;;;3.65;;
65162;SDS011;51751;55.714;37.436;2023-08-20T12:57:56;5.20;;;3.45;;
65162;SDS011;51751;55.714;37.436;2023-08-20T13:00:23;7.55;;;3.67;;
65162;SDS011;51751;55.714;37.436;2023-08-20T13:02:56;6.10;;;3.10;;
65162;SDS011;51751;55.714;37.436;2023-08-20T13:05:23;5.07;;;3.20;;
65162;SDS011;51751;55.714;37.436;2023-08-20T13:07:49;4.70;;;3.10;;
65162;SDS011;51751;55.714;37.436;2023-08-20T13:10:16;7.95;;;3.50;;
65162;SDS011;51751;55.714;37.436;2023-08-20T13:12:45;7.93;;;3.20;;
65162;SDS011;51751;55.714;37.436;2023-08-20T13:15:18;5.47;;;3.05;;
65162;SDS011;51751;55.714;37.436;2023-08-20T13:17:48;4.63;;;3.30;;
65162;SDS011;51751;55.714;37.436;2023-08-20T13:20:15;6.28;;;3.30;;
65162;SDS011;51751;55.714;37.436;2023-08-20T13:22:46;5.63;;;3.50;;
65162;SDS011;51751;55.714;37.436;2023-08-20T13:25:13;6.18;;;3.33;;
65162;SDS011;51751;55.714;37.436;2023-08-20T13:27:40;9.82;;;3.53;;
65162;SDS011;51751;55.714;37.436;2023-08-20T13:30:07;6.68;;;3.58;;
65162;SDS011;51751;55.714;37.436;2023-08-20T13:32:36;7.25;;;3.35;;
65162;SDS011;51751;55.714;37.436;2023-08-20T13:35:02;6.65;;;3.72;;
65162;SDS011;51751;55.714;37.436;2023-08-20T13:37:31;7.05;;;3.72;;
65162;SDS011;51751;55.714;37.436;2023-08-20T13:39:58;9.25;;;4.00;;
65162;SDS011;51751;55.714;37.436;2023-08-20T13:42:24;9.55;;;4.47;;
65162;SDS011;51751;55.714;37.436;2023-08-20T13:44:50;11.45;;;4.22;;
65162;SDS011;51751;55.714;37.436;2023-08-20T13:47:19;8.15;;;4.35;;
65162;SDS011;51751;55.714;37.436;2023-08-20T13:49:45;8.40;;;4.40;;
65162;SDS011;51751;55.714;37.436;2023-08-20T13:52:11;8.57;;;4.15;;
65162;SDS011;51751;55.714;37.436;2023-08-20T13:54:37;7.65;;;4.32;;
65162;SDS011;51751;55.714;37.436;2023-08-20T13:57:03;10.20;;;4.65;;
65162;SDS011;51751;55.714;37.436;2023-08-20T13:59:30;10.10;;;4.90;;
65162;SDS011;51751;55.714;37.436;2023-08-20T14:01:57;7.68;;;4.95;;
65162;SDS011;51751;55.714;37.436;2023-08-20T14:04:24;11.13;;;5.07;;
65162;SDS011;51751;55.714;37.436;2023-08-20T14:06:50;8.05;;;5.05;;
65162;SDS011;51751;55.714;37.436;2023-08-20T14:09:16;8.45;;;4.97;;
65162;SDS011;51751;55.714;37.436;2023-08-20T14:11:45;7.60;;;5.40;;
65162;SDS011;51751;55.714;37.436;2023-08-20T14:14:11;9.15;;;4.78;;
65162;SDS011;51751;55.714;37.436;2023-08-20T14:16:38;6.60;;;4.72;;
65162;SDS011;51751;55.714;37.436;2023-08-20T14:19:04;11.35;;;5.05;;
65162;SDS011;51751;55.714;37.436;2023-08-20T14:21:29;8.30;;;4.68;;
65162;SDS011;51751;55.714;37.436;2023-08-20T14:23:55;9.13;;;5.07;;
65162;SDS011;51751;55.714;37.436;2023-08-20T14:26:21;8.07;;;5.00;;
65162;SDS011;51751;55.714;37.436;2023-08-20T14:28:47;8.25;;;5.05;;
65162;SDS011;51751;55.714;37.436;2023-08-20T14:31:13;8.05;;;5.25;;
65162;SDS011;51751;55.714;37.436;2023-08-20T14:33:39;11.35;;;5.68;;
65162;SDS011;51751;55.714;37.436;2023-08-20T14:36:05;7.43;;;5.18;;
65162;SDS011;51751;55.714;37.436;2023-08-20T14:38:31;17.63;;;6.38;;
65162;SDS011;51751;55.714;37.436;2023-08-20T14:41:00;8.98;;;5.10;;
65162;SDS011;51751;55.714;37.436;2023-08-20T14:43:27;8.80;;;6.00;;
65162;SDS011;51751;55.714;37.436;2023-08-20T14:45:54;13.27;;;5.72;;
65162;SDS011;51751;55.714;37.436;2023-08-20T14:48:24;9.88;;;5.60;;
65162;SDS011;51751;55.714;37.436;2023-08-20T14:50:50;11.05;;;6.25;;
65162;SDS011;51751;55.714;37.436;2023-08-20T14:53:16;9.52;;;5.75;;
65162;SDS011;51751;55.714;37.436;2023-08-20T14:55:46;12.57;;;6.30;;
65162;SDS011;51751;55.714;37.436;2023-08-20T14:58:12;10.02;;;6.35;;